Aeroporto :
LOGIN :

Iscrizione | Disclaimer

   EN    FR    IT 

 










Sommario :    VFR   VFR Marginale   IFR   IFR Intensivo   IFR Molto Intensivo
Visibilità : 
Base nubi : 
>= 8 km
>= 3000ft
5 / 8 km
1000 / 3000 ft
1500m / 5 km
500 / 1000 ft
800 / 1500m
200 / 500 ft
< 800m
< 200 ft
Simboli :   Temporali  Nebbia  Neve Forte  Precipitazioni Forti  Vento > 20 kt
SIGMETs :   Varie  Temporali  Ghiacco  Turbolenza  Onda orograficha  Ceneri Vulcaniche






- Altitudine del aeroporto : 778 ft
- Codice IATA : BRQ


LKTB - Brno-Turany

ULTIMO METAR :
  • 121900Z 06001KT 1800 -SN BR OVC003 00/M00 Q1003 R27/950194 TEMPO 1400 SN BR

METARs OBSOLETI :
  • 121849Z 05001KT 2200 -SN BR BKN003 BKN014 OVC022 00/M00 Q1004 R27/950194 RMK REG QNH 0996
  • 121838Z 06002KT 2200 -SN BR BKN004 OVC021 00/M00 Q1004 RMK REG QNH 0996
  • 121830Z 06002KT 2200 -SN BR BKN005 OVC021 00/M00 Q1004 NOSIG
  • 121811Z 05002KT 2000 SN BR BKN005 OVC016 00/M00 Q1004 RMK REG QNH 0996
  • 121800Z 05002KT 2500 SN BR BKN006 OVC025 00/M00 Q1004 NOSIG
  • 121741Z VRB01KT 2900 -SN BR SCT007 OVC018 00/M01 Q1004 RMK REG QNH 0997
  • 121700Z 08002KT 4500 -SN BR OVC005 00/M01 Q1005 TEMPO 2500 SN BR OVC004
  • 121649Z 00000KT 4500 -SN BR OVC005 00/M01 Q1005 RMK REG QNH 0997
  • 121630Z 31001KT 5000 -SN BR OVC006 00/M01 Q1005 NOSIG

TAF TAF LKTB
Valido dal 12 a 18 ore il 14 a 00 ore UTC


121700Z 1218/1400 VRB02KT 6000 OVC005
BECMG 1218/1220 1200 -SN BR BKN003
TEMPO 1220/1305 0300 FZFG VV001
BECMG 1306/1309 15010KT 7000 BKN008
TEMPO 1309/1316 BKN012
BECMG 1320/1323 0500 FZFG VV002



MetMap, La meteo Aeronautica in un colpo d'occhio ! - Copyright ORBIFLY Dicembre 2007 - Disclaimer

ORBIFLY MET'MAP TEAM :

Programmazione e sviluppo : Alexandra Zaïnal
Concezione : Baudouin d'Aumeries
Aiuto per la programmazione : Marc-Olivier Méhu
Supporto tecnico e logistico : Manuel Goepfert
Aiuto per la traduzione : Arnaldo La Scala

Contatto : metmap@orbifly.com




FONTI E CREDITI :

   NOAA